Redondo, Valles Caldera, New Mexico Weather observations

Data are for 10 minute period ending at time listed.
 Day   Time   Solar   Ave.   Ave.  Ave.  Vector  Max.   Baro.   Total    
  of    of     Rad.   Air    Rel.  Wind   Wind   Wind  Press.  Precip.   
Year   Day            Temp.  Hum.  Speed  Dir.   Gust                    
2015   (MST)  Kw/m2    F      %     mph   deg.    mph    mb.     in.     
-------------------------------------------------------------------------
 246   16:30   0.26   61.7    42    4.2   300     7.8   692.8    0.00 
 246   16:40   0.29   61.0    42    4.0   300     9.6   692.7    0.00 
 246   16:50   0.38   61.9    39    5.3   308     9.0   692.6    0.00 
 246   17:00   0.30   63.1    37    4.4   303    10.2   692.6    0.00 
 246   17:10   0.20   61.6    38    5.1   314     9.6   692.7    0.00 
 246   17:20   0.11   59.5    41    4.0   320     7.8   692.7    0.00 
 246   17:30   0.12   58.6    42    3.8   322     9.6   692.6    0.00 
 246   17:40   0.08   58.0    42    3.9   313    10.2   692.8    0.00 
 246   17:50   0.04   56.2    46    3.5   313     9.6   692.7    0.00 
 246   18:00   0.02   55.1    46    3.5   311     8.4   692.8    0.00 
 246   18:10   0.02   54.4    45    4.1   311     9.0   692.9    0.00 
 246   18:20   0.01   54.0    45    3.7   321     6.6   692.9    0.00 
 246   18:30   0.01   53.5    45    3.0   318     7.2   693.0    0.00 
 246   18:40   0.00   52.9    46    2.0   327     5.4   693.0    0.00 
 246   18:50   0.00   52.3    46    2.2   328     5.4   693.1    0.00 
 246   19:00   0.00   52.2    46    2.7   324     5.4   693.2    0.00 
 246   19:10   0.00   52.4    46    2.6   320     6.6   693.2    0.00 
 246   19:20   0.00   52.3    47    2.9   324     5.4   693.3    0.00 
 246   19:30   0.00   52.2    48    2.4   327     4.8   693.5    0.00 
 246   19:40   0.00   52.2    48    2.3   325     5.4   693.6    0.00 
 246   19:50   0.00   52.2    49    2.1   317     4.8   693.7    0.00 
 246   20:00   0.00   52.2    49    1.7   317     4.2   693.7    0.00 
 246   20:10   0.00   51.8    50    0.6   320     3.0   693.7    0.00 
 246   20:20   0.00   50.9    52    0.1   352     2.4   693.8    0.00 
 246   20:30   0.00   50.1    53    0.3   301     2.4   693.9    0.00 
 246   20:40   0.00   50.6    52    1.0   306     3.6   693.9    0.00 
 246   20:50   0.00   50.5    52    0.3   293     3.0   693.9    0.00 
 246   21:00   0.00   50.1    53    0.1   306     1.8   694.0    0.00 
 246   21:10   0.00   49.8    54    0.2   271     1.8   693.9    0.00 
 246   21:20   0.00   50.1    53    0.1   302     1.2   693.9    0.00 
 246   21:30   0.00   49.5    55    0.0   307     1.2   693.9    0.00 
 246   21:40   0.00   49.2    55    0.0    30     1.2   693.8    0.00 
 246   21:50   0.00   49.3    56    0.4   170     3.6   693.8    0.00 
 246   22:00   0.00   49.9    54    0.7   111     2.4   693.8    0.00 
 246   22:10   0.00   50.0    54    1.0   125     2.4   693.7    0.00 
 246   22:20   0.00   48.8    57    3.2   158     7.2   693.7    0.00 
 246   22:30   0.00   49.5    58    4.3   162     7.8   693.6    0.00 
 246   22:40   0.00   49.5    64    3.4   161     9.0   693.6    0.00 
 246   22:50   0.00   49.6    65    3.9   164     9.6   693.6    0.00 
 246   23:00   0.00   50.0    64    3.5   170     6.6   693.6    0.00 
 246   23:10   0.00   49.6    65    2.7   181     6.0   693.6    0.00 
 246   23:20   0.00   49.2    65    1.4   237     4.2   693.6    0.00 
 246   23:30   0.00   48.7    66    1.6   297     6.0   693.6    0.00 
 246   23:40   0.00   48.3    66    0.9   298     3.0   693.6    0.00 
 246   23:50   0.00   47.8    67    0.7   242     2.4   693.6    0.00 
 247    0:00   0.00   47.7    68    1.4   256     4.2   693.6    0.00 
 247    0:10   0.00   48.0    67    1.6   284     3.0   693.6    0.00 
 247    0:20   0.00   48.3    67    1.8   278     4.2   693.5    0.00 
 247    0:30   0.00   48.3    67    1.0   265     3.0   693.5    0.00 
 247    0:40   0.00   48.4    66    2.0   265     3.6   693.5    0.00 
 247    0:50   0.00   48.5    66    2.1   295     4.8   693.5    0.00 
 247    1:00   0.00   48.1    68    1.9   290     4.2   693.4    0.00 
 247    1:10   0.00   47.9    69    1.8   289     4.8   693.4    0.00 
 247    1:20   0.00   47.6    70    1.8   290     5.4   693.3    0.00 
 247    1:30   0.00   47.2    71    1.1   287     3.0   693.3    0.00 
 247    1:40   0.00   46.9    70    0.8   296     3.0   693.1    0.00 
 247    1:50   0.00   46.8    68    1.3   275     4.8   693.1    0.00 
 247    2:00   0.00   47.6    65    1.2   278     5.4   693.1    0.00 
 247    2:10   0.00   47.2    66    0.9   288     4.2   693.1    0.00 
 247    2:20   0.00   47.5    66    1.1   283     3.6   693.0    0.00 
 247    2:30   100.00  99999.0   99999  99999.0   99999   99999.0   99999.0   99999.00 
 247    2:40   100.00  99999.0   99999  99999.0   99999   99999.0   99999.0   99999.00 
 247    2:50   100.00  99999.0   99999  99999.0   99999   99999.0   99999.0   99999.00 
 247    3:00   100.00  99999.0   99999  99999.0   99999   99999.0   99999.0   99999.00 
 247    3:10   100.00  99999.0   99999  99999.0   99999   99999.0   99999.0   99999.00 
 247    3:20   100.00  99999.0   99999  99999.0   99999   99999.0   99999.0   99999.00 
 247    3:30   0.00   48.3    67    0.7   291     4.2   692.9    0.00 
 247    3:40   0.00   48.4    67    1.3   294     3.0   692.9    0.00 
 247    3:50   0.00   48.6    67    1.1   288     4.2   692.9    0.00 
 247    4:00   0.00   48.7    66    0.2   260     1.8   692.9    0.00 
 247    4:10   0.00   48.7    66    0.2   266     1.8   692.8    0.00 
 247    4:20   0.00   48.7    66    0.5   267     2.4   692.8    0.00 
 247    4:30   0.00   48.7    66    0.3   288     1.8   692.9    0.00 
 247    4:40   0.00   48.6    66    0.0   255     1.2   692.9    0.00 
 247    4:50   0.00   48.7    66    0.0   262     1.2   692.9    0.00 
 247    5:00   0.00   48.8    64    0.1   261     1.8   692.9    0.00 
 247    5:10   0.00   48.8    64    0.1   254     1.8   692.9    0.00 
 247    5:20   0.00   48.6    65    0.0     0     0.0   692.9    0.00 
 247    5:30   0.00   48.5    66    0.2   232     2.4   693.0    0.00 
 247    5:40   0.00   48.7    67    1.4   167     3.6   693.1    0.00 
 247    5:50   0.00   48.9    68    3.3   165     7.2   693.2    0.00 
 247    6:00   0.00   48.9    69    3.2   164     7.2   693.2    0.00 
 247    6:10   0.01   48.8    69    2.8   163     6.0   693.3    0.00 
 247    6:20   0.01   48.8    68    2.8   171     6.0   693.3    0.00 
 247    6:30   0.03   49.0    68    2.9   170     5.4   693.4    0.00 
 247    6:40   0.03   49.0    68    2.5   170     4.8   693.4    0.00 
 247    6:50   0.05   49.2    68    2.9   167     6.0   693.4    0.00 
 247    7:00   0.06   49.5    68    3.0   165     6.0   693.5    0.00 
 247    7:10   0.04   49.5    68    2.1   156     3.6   693.6    0.00 
 247    7:20   0.05   49.5    68    1.6   163     3.6   693.5    0.00 
 247    7:30   0.08   49.8    68    1.3   178     5.4   693.6    0.00 
 247    7:40   0.12   50.3    68    1.6   171     5.4   693.6    0.00 
 247    7:50   0.16   50.8    66    2.4   177     4.8   693.7    0.00 
 247    8:00   0.13   51.2    65    1.7   144     3.6   693.7    0.00 
 247    8:10   0.14   51.0    65    2.4   155     4.8   693.7    0.00 
 247    8:20   0.11   50.8    65    2.2   151     4.8   693.7    0.00 
 247    8:30   0.12   50.9    65    1.1   134     3.6   693.7    0.00 
 247    8:40   0.14   51.0    66    1.1   177     3.0   693.7    0.00 
 247    8:50   0.20   51.3    65    2.1   152     4.2   693.7    0.00 
 247    9:00   0.10   50.8    66    1.4   136     3.6   693.8    0.00 
 247    9:10   0.09   50.5    68    1.6   156     3.6   693.9    0.00 
 247    9:20   0.12   50.6    69    2.2   175     4.8   694.0    0.00 
 247    9:30   0.14   50.5    68    2.6   163     6.0   694.0    0.00 
 247    9:40   0.16   50.7    68    2.5   160     6.6   694.1    0.00 
 247    9:50   0.23   51.0    66    3.7   155     7.8   694.0    0.00 
 247   10:00   0.20   50.8    67    3.5   167     6.6   694.0    0.00 
 247   10:10   0.20   51.0    68    3.4   162     7.2   693.9    0.00 
 247   10:20   0.23   50.7    67    3.8   149     7.2   694.0    0.00 
 247   10:30   0.34   51.1    68    3.7   171     7.8   694.0    0.00 
 247   10:40   0.27   51.8    66    3.3   155     6.6   694.0    0.00 
 247   10:50   0.36   51.9    67    3.3   163     8.4   693.9    0.00 
 247   11:00   0.43   53.1    65    4.6   172     9.6   693.9    0.00 
 247   11:10   0.32   52.6    66    4.0   166     7.8   693.9    0.00 
 247   11:20   0.22   51.9    68    4.0   171     9.0   693.9    0.00 
 247   11:30   0.25   51.2    70    3.7   170     9.0   693.8    0.00 
 247   11:40   0.51   52.4    67    4.8   177     9.0   693.8    0.00 
 247   11:50   0.44   53.2    66    4.5   166    15.5   693.8    0.00 
 247   12:00   0.34   52.7    68    4.5   186    10.8   693.7    0.00 
 247   12:10   0.37   51.7    72    5.4   175    11.3   693.7    0.00 
 247   12:20   0.29   50.9    76    4.1   176     8.4   693.7    0.00 
 247   12:30   0.23   50.0    78    5.2   155    11.9   693.7    0.00 
 247   12:40   0.24   49.7    80    4.1   168     9.0   693.7    0.00 
 247   12:50   0.24   49.9    79    5.0   177    12.5   693.7    0.00 
 247   13:00   0.42   50.2    79    4.5   172     9.6   693.7    0.00 
 247   13:10   0.45   52.0    75    4.9   176    10.2   693.7    0.00 
 247   13:20   0.26   51.8    74    3.6   185     9.0   693.8    0.00 
 247   13:30   0.23   50.7    77    4.9   182    10.2   693.7    0.00 
 247   13:40   0.24   49.4    81    5.3   188    12.5   693.7    0.01 
 247   13:50   0.33   49.8    84    4.0   166     8.4   693.7    0.00 
 247   14:00   0.12   49.6    85    3.1   165     7.2   693.7    0.01 
 247   14:10   0.10   48.1    88    3.3   155     6.6   693.7    0.02 
 247   14:20   0.10   47.1    90    5.1   153    11.3   693.7    0.01 
 247   14:30   0.09   46.3    93    5.5   161    14.3   693.6    0.01 
 247   14:40   0.12   46.3    94    5.3   160    10.8   693.4    0.02 
 247   14:50   0.06   46.0    95    5.0   162    10.8   693.4    0.00 
 247   15:00   0.05   45.6    95    4.9   163    10.8   693.4    0.01 
 247   15:10   0.06   45.9    96    4.7   157     9.6   693.3    0.01 
 247   15:20   0.06   45.9    96    4.5   165     9.6   693.3    0.02 
 247   15:30   0.14   45.9    96    6.2   170    11.3   693.3    0.01 
 247   15:40   0.12   45.8    96    5.9   155    11.9   693.2    0.01 
 247   15:50   0.15   45.9    97    5.3   166     9.6   693.2    0.01 
 247   16:00   0.16   46.2    97    5.2   169    10.8   693.2    0.00 
 247   16:10   0.19   46.6    97    5.0   166    10.8   693.2    0.00 
 247   16:20   0.11   46.6    96    5.8   160    11.3   693.2    0.00 

Return to Redondo, Valles Caldera graphs page.


Western Regional Climate Center,wrcc@dri.edu